This is the latest recevied weather packets stored in our database for station/object CRYC. If no packets are shown the sender has not sent any weather packets the latest 10 day(s).
| Time | Temp. | Humidity | Pressure | Rain* | Wind** | Luminosity | Snow |
|---|---|---|---|---|---|---|---|
| 1777595760 | 13.89° C | - | - | 0 mm | 2.24 m/s, 17° | - | - |
| 1777595156 | 14.44° C | - | - | 0 mm | 2.68 m/s, 27° | - | - |
| 1777594550 | 15° C | - | - | 0 mm | 3.13 m/s, 35° | - | - |
| 1777593945 | 15° C | - | - | 0 mm | 2.68 m/s, 4° | - | - |
| 1777593340 | 16.11° C | - | - | 0 mm | 2.68 m/s, 300° | - | - |
| 1777592737 | 16.11° C | - | - | 0 mm | 1.79 m/s, 335° | - | - |
| 1777592145 | 16.67° C | - | - | 0 mm | 1.79 m/s, 312° | - | - |
| 1777591529 | 16.67° C | - | - | 0 mm | 0 m/s | - | - |
| 1777590920 | 17.22° C | - | - | 0 mm | 1.34 m/s, 347° | - | - |
| 1777590317 | 17.78° C | - | - | 0 mm | 0.45 m/s, 11° | - | - |
| 1777589711 | 17.78° C | - | - | 0 mm | 2.24 m/s, 304° | - | - |
| 1777589108 | 18.33° C | - | - | 0 mm | 2.24 m/s, 267° | - | - |
| 1777588503 | 18.89° C | - | - | 0 mm | 1.79 m/s, 312° | - | - |
| 1777587899 | 21.11° C | - | - | 0 mm | 1.79 m/s, 316° | - | - |
| 1777587294 | 20° C | - | - | 0 mm | 0.45 m/s, 277° | - | - |
| 1777586690 | 21.67° C | - | - | 0 mm | 0.45 m/s, 281° | - | - |
| 1777586082 | 20° C | - | - | 0 mm | 0.89 m/s, 328° | - | - |
| 1777585475 | 21.11° C | - | - | 0 mm | 2.24 m/s, 298° | - | - |
| 1777584258 | 20° C | - | - | 0 mm | 2.24 m/s, 321° | - | - |
| 1777583650 | 20.56° C | - | - | 0 mm | 1.34 m/s, 318° | - | - |
| 1777583041 | 20.56° C | - | - | 0 mm | 1.79 m/s, 284° | - | - |
| 1777582435 | 20.56° C | - | - | 0 mm | 2.68 m/s, 336° | - | - |
| 1777581831 | 21.11° C | - | - | 0 mm | 2.24 m/s, 291° | - | - |
| 1777581226 | 21.11° C | - | - | 0 mm | 2.24 m/s, 326° | - | - |
| 1777580623 | 22.22° C | - | - | 0 mm | 0.89 m/s, 3° | - | - |
* Rain latest hour (hover to see other rain measurements)
** Current wind speed in m/s (hover to see current wind gust speed)